createdAt,value
2017-06-21T00:00:30.000Z,11.73
2017-06-21T00:02:57.538Z,10.27
2017-06-21T00:05:25.092Z,10.17
2017-06-21T00:07:52.619Z,10.33
2017-06-21T00:10:20.172Z,10.40
2017-06-21T00:12:47.699Z,10.93
2017-06-21T00:15:15.256Z,10.40
2017-06-21T00:17:43.559Z,10.53
2017-06-21T00:20:11.127Z,10.33
2017-06-21T00:22:38.655Z,10.00
2017-06-21T00:25:06.191Z,11.20
2017-06-21T00:27:33.743Z,10.00
2017-06-21T00:30:01.266Z,9.80
2017-06-21T00:32:29.583Z,11.03
2017-06-21T00:34:57.115Z,11.20
2017-06-21T00:37:24.662Z,10.20
2017-06-21T00:39:52.955Z,10.80
2017-06-21T00:42:20.525Z,11.30
2017-06-21T00:44:48.060Z,10.73
2017-06-21T00:47:16.359Z,10.27
2017-06-21T00:49:43.907Z,10.30
2017-06-21T00:52:11.440Z,10.10
2017-06-21T00:54:38.992Z,10.40
2017-06-21T00:57:06.519Z,10.03
2017-06-21T00:59:34.835Z,10.70
2017-06-21T01:02:02.366Z,11.07
2017-06-21T01:04:29.932Z,9.53
2017-06-21T01:06:57.503Z,10.03
2017-06-21T01:09:25.036Z,11.17
2017-06-21T01:11:52.592Z,10.77
2017-06-21T01:14:20.129Z,9.80
2017-06-21T01:16:47.688Z,10.17
2017-06-21T01:19:15.987Z,11.20
2017-06-21T01:21:43.535Z,9.17
2017-06-21T01:24:11.068Z,10.77
2017-06-21T01:26:38.614Z,9.63
2017-06-21T01:29:06.904Z,8.80
2017-06-21T01:31:34.455Z,10.13
2017-06-21T01:34:01.992Z,9.80
2017-06-21T01:36:29.559Z,10.27
2017-06-21T01:38:57.093Z,10.60
2017-06-21T01:41:24.624Z,11.37
2017-06-21T01:43:52.175Z,11.00
2017-06-21T01:46:19.708Z,10.47
2017-06-21T01:48:47.263Z,11.00
2017-06-21T01:51:14.800Z,10.23
2017-06-21T01:53:43.115Z,10.80
2017-06-21T01:56:10.649Z,11.50
2017-06-21T01:58:38.988Z,10.43
2017-06-21T02:01:06.520Z,10.57
2017-06-21T02:03:34.050Z,10.13
2017-06-21T02:06:01.608Z,10.63
2017-06-21T02:08:29.134Z,9.60
2017-06-21T02:10:57.450Z,10.00
2017-06-21T02:13:24.980Z,10.27
2017-06-21T02:15:53.296Z,9.40
2017-06-21T02:18:20.821Z,9.87
2017-06-21T02:20:48.383Z,9.50
2017-06-21T02:23:15.916Z,10.67
2017-06-21T02:25:43.449Z,9.73
2017-06-21T02:28:11.003Z,9.10
2017-06-21T02:30:39.304Z,9.27
2017-06-21T02:33:06.856Z,8.60
2017-06-21T02:35:34.383Z,8.87
2017-06-21T02:38:02.695Z,9.10
2017-06-21T02:40:30.231Z,9.17
2017-06-21T02:42:58.564Z,10.00
2017-06-21T02:45:26.094Z,10.50
2017-06-21T02:47:53.619Z,9.20
2017-06-21T02:50:21.167Z,8.17
2017-06-21T02:52:48.696Z,8.63
2017-06-21T02:55:17.009Z,8.30
2017-06-21T02:57:44.540Z,8.13
2017-06-21T03:00:12.864Z,8.77
2017-06-21T03:02:41.159Z,7.70
2017-06-21T03:05:08.695Z,9.53
2017-06-21T03:07:36.244Z,8.87
2017-06-21T03:10:03.769Z,8.37
2017-06-21T03:12:32.107Z,8.53
2017-06-21T03:15:11.614Z,8.40
2017-06-21T03:17:39.159Z,8.20
2017-06-21T03:20:07.452Z,9.67
2017-06-21T03:22:35.012Z,8.00
2017-06-21T03:25:02.536Z,7.53
2017-06-21T03:27:30.827Z,6.53
2017-06-21T03:29:58.375Z,7.80
2017-06-21T03:32:25.895Z,7.57
2017-06-21T03:34:53.445Z,7.77
2017-06-21T03:37:21.735Z,7.93
2017-06-21T03:39:49.288Z,7.93
2017-06-21T03:42:16.815Z,7.77
2017-06-21T03:44:44.362Z,7.40
2017-06-21T03:47:11.886Z,8.43
2017-06-21T03:49:39.415Z,8.17
2017-06-21T03:52:07.732Z,7.47
2017-06-21T03:54:35.259Z,7.33
2017-06-21T03:57:02.807Z,7.60
2017-06-21T03:59:30.335Z,7.23
2017-06-21T04:01:57.899Z,6.80
2017-06-21T04:04:25.428Z,6.73
2017-06-21T04:06:52.956Z,7.00
2017-06-21T04:09:21.271Z,7.33
2017-06-21T04:11:48.801Z,7.60
2017-06-21T04:14:17.117Z,6.90
2017-06-21T04:16:44.639Z,6.53
2017-06-21T04:19:12.948Z,7.73
2017-06-21T04:21:40.471Z,6.33
2017-06-21T04:24:08.034Z,6.20
2017-06-21T04:26:35.555Z,7.30
2017-06-21T04:29:03.859Z,6.10
2017-06-21T04:31:31.403Z,6.80
2017-06-21T04:33:58.931Z,7.43
2017-06-21T04:36:26.475Z,7.10
2017-06-21T04:38:54.001Z,7.80
2017-06-21T04:41:21.550Z,6.80
2017-06-21T04:43:49.631Z,7.10
2017-06-21T04:46:17.272Z,6.83
2017-06-21T04:48:46.163Z,5.70
2017-06-21T04:51:14.863Z,6.73
2017-06-21T04:53:43.191Z,5.60
2017-06-21T04:56:10.720Z,6.07
2017-06-21T04:58:39.032Z,5.57
2017-06-21T05:01:06.559Z,6.13
2017-06-21T05:03:34.875Z,5.97
2017-06-21T05:06:02.399Z,5.50
2017-06-21T05:08:29.943Z,5.00
2017-06-21T05:10:57.474Z,4.67
2017-06-21T05:13:25.006Z,4.50
2017-06-21T05:15:52.552Z,4.43
2017-06-21T05:18:20.083Z,5.43
2017-06-21T05:20:47.631Z,4.40
2017-06-21T05:23:15.156Z,4.13
2017-06-21T05:25:42.704Z,4.27
2017-06-21T05:28:10.231Z,4.60
2017-06-21T05:30:37.800Z,4.00
2017-06-21T05:33:05.323Z,4.60
2017-06-21T05:35:32.851Z,3.93
2017-06-21T05:38:00.395Z,4.50
2017-06-21T05:40:27.919Z,3.40
2017-06-21T05:42:55.464Z,3.80
2017-06-21T05:45:22.998Z,3.43
2017-06-21T05:47:51.323Z,4.13
2017-06-21T05:50:18.847Z,4.13
2017-06-21T05:52:46.400Z,3.83
2017-06-21T05:55:14.690Z,3.40
2017-06-21T05:57:42.239Z,3.27
2017-06-21T06:00:10.530Z,3.80
2017-06-21T06:02:38.063Z,3.20
2017-06-21T06:05:05.612Z,3.50
2017-06-21T06:07:33.138Z,3.40
2017-06-21T06:10:01.461Z,3.30
2017-06-21T06:12:28.995Z,3.23
2017-06-21T06:14:56.539Z,3.97
2017-06-21T06:17:24.067Z,3.40
2017-06-21T06:19:51.611Z,3.13
2017-06-21T06:22:19.140Z,3.60
2017-06-21T06:24:46.714Z,3.67
2017-06-21T06:27:15.007Z,3.20
2017-06-21T06:29:42.535Z,3.93
2017-06-21T06:32:10.084Z,3.23
2017-06-21T06:34:37.611Z,3.00
2017-06-21T06:37:05.155Z,3.03
2017-06-21T06:39:33.447Z,3.27
2017-06-21T06:42:01.766Z,3.50
2017-06-21T06:44:29.292Z,3.67
2017-06-21T06:46:56.835Z,4.70
2017-06-21T06:49:24.367Z,3.83
2017-06-21T06:51:51.930Z,4.20
2017-06-21T06:54:19.455Z,4.03
2017-06-21T06:56:46.986Z,3.70
2017-06-21T06:59:14.526Z,4.40
2017-06-21T07:01:42.051Z,4.20
2017-06-21T07:04:09.598Z,4.00
2017-06-21T07:06:37.125Z,3.47
2017-06-21T07:09:04.671Z,3.60
2017-06-21T07:11:32.195Z,3.50
2017-06-21T07:13:59.751Z,4.17
2017-06-21T07:16:28.050Z,4.30
2017-06-21T07:18:56.429Z,4.43
2017-06-21T07:21:23.960Z,4.77
2017-06-21T07:23:51.488Z,4.00
2017-06-21T07:26:19.035Z,4.07
2017-06-21T07:28:46.560Z,4.53
2017-06-21T07:31:14.112Z,4.37
2017-06-21T07:33:41.634Z,4.00
2017-06-21T07:36:09.185Z,4.33
2017-06-21T07:38:36.712Z,4.90
2017-06-21T07:41:05.026Z,4.03
2017-06-21T07:43:32.551Z,3.57
2017-06-21T07:46:00.079Z,4.20
2017-06-21T07:48:27.619Z,4.90
2017-06-21T07:50:55.143Z,4.40
2017-06-21T07:53:22.691Z,3.90
2017-06-21T07:55:50.978Z,4.30
2017-06-21T07:58:18.527Z,4.23
2017-06-21T08:00:46.052Z,4.63
2017-06-21T08:03:13.599Z,4.43
2017-06-21T08:05:41.132Z,4.03
2017-06-21T08:08:09.427Z,4.17
2017-06-21T08:10:36.976Z,4.40
2017-06-21T08:13:04.506Z,5.30
2017-06-21T08:15:32.055Z,4.60
2017-06-21T08:18:00.351Z,3.90
2017-06-21T08:20:27.896Z,4.53
2017-06-21T08:22:55.469Z,4.40
2017-06-21T08:25:23.030Z,5.40
2017-06-21T08:27:50.552Z,3.90
2017-06-21T08:30:18.080Z,4.40
2017-06-21T08:32:45.633Z,4.33
2017-06-21T08:35:13.931Z,4.53
2017-06-21T08:37:41.517Z,4.53
2017-06-21T08:40:09.045Z,4.60
2017-06-21T08:42:36.587Z,4.33
2017-06-21T08:45:04.109Z,4.80
2017-06-21T08:47:31.659Z,4.57
2017-06-21T08:49:59.205Z,4.07
2017-06-21T08:52:26.731Z,4.80
2017-06-21T08:54:54.279Z,4.30
2017-06-21T08:57:21.808Z,3.93
2017-06-21T08:59:50.119Z,4.87
2017-06-21T09:02:17.640Z,5.00
2017-06-21T09:04:45.170Z,4.50
2017-06-21T09:07:12.715Z,3.83
2017-06-21T09:09:40.245Z,5.20
2017-06-21T09:12:07.794Z,5.07
2017-06-21T09:14:35.324Z,4.80
2017-06-21T09:17:02.876Z,4.40
2017-06-21T09:19:30.401Z,4.40
2017-06-21T09:21:57.964Z,4.70
2017-06-21T09:24:25.491Z,5.17
2017-06-21T09:26:53.779Z,4.77
2017-06-21T09:29:21.328Z,5.37
2017-06-21T09:31:49.620Z,4.80
2017-06-21T09:34:17.183Z,4.00
2017-06-21T09:36:44.716Z,4.93
2017-06-21T09:39:12.247Z,3.77
2017-06-21T09:41:39.797Z,4.27
2017-06-21T09:44:07.327Z,3.90
2017-06-21T09:46:34.885Z,4.07
2017-06-21T09:49:03.184Z,3.70
2017-06-21T09:51:30.732Z,4.60
2017-06-21T09:53:58.262Z,4.43
2017-06-21T09:56:25.824Z,4.00
2017-06-21T09:58:53.352Z,4.00
2017-06-21T10:01:20.884Z,3.80
2017-06-21T10:03:48.430Z,4.27
2017-06-21T10:06:15.972Z,4.13
2017-06-21T10:08:43.523Z,4.00
2017-06-21T10:11:11.056Z,3.83
2017-06-21T10:13:38.624Z,3.47
2017-06-21T10:16:06.919Z,3.80
2017-06-21T10:18:35.210Z,4.07
2017-06-21T10:21:02.751Z,4.00
2017-06-21T10:23:30.278Z,4.20
2017-06-21T10:25:57.829Z,3.17
2017-06-21T10:28:25.356Z,3.40
2017-06-21T10:30:53.674Z,3.10
2017-06-21T10:33:21.195Z,3.47
2017-06-21T10:35:48.759Z,3.40
2017-06-21T10:38:16.282Z,3.50
2017-06-21T10:40:43.806Z,3.80
2017-06-21T10:43:11.356Z,3.50
2017-06-21T10:45:38.882Z,3.13
2017-06-21T10:48:06.428Z,4.03
2017-06-21T10:50:33.956Z,3.50
2017-06-21T10:53:01.503Z,3.90
2017-06-21T10:55:29.034Z,3.40
2017-06-21T10:57:56.587Z,3.37
2017-06-21T11:00:24.108Z,4.07
2017-06-21T11:02:51.634Z,3.80
2017-06-21T11:05:19.175Z,4.70
2017-06-21T11:07:47.467Z,3.47
2017-06-21T11:10:15.011Z,3.43
2017-06-21T11:12:42.533Z,4.00
2017-06-21T11:15:10.083Z,4.30
2017-06-21T11:17:37.611Z,4.37
2017-06-21T11:20:05.179Z,3.70
2017-06-21T11:22:32.698Z,4.67
2017-06-21T11:25:00.227Z,4.17
2017-06-21T11:27:27.777Z,3.90
2017-06-21T11:29:55.307Z,3.53
2017-06-21T11:32:22.869Z,4.00
2017-06-21T11:34:50.410Z,3.60
2017-06-21T11:37:17.954Z,4.47
2017-06-21T11:39:45.479Z,3.80
2017-06-21T11:42:13.811Z,5.03
2017-06-21T11:44:41.339Z,4.67
2017-06-21T11:47:08.868Z,4.00
2017-06-21T11:49:36.411Z,5.37
2017-06-21T11:52:03.940Z,4.43
2017-06-21T11:54:31.491Z,3.90
2017-06-21T11:56:59.031Z,4.93
2017-06-21T11:59:27.347Z,4.80
2017-06-21T12:01:54.870Z,3.80
2017-06-21T12:04:23.203Z,5.07
2017-06-21T12:06:50.726Z,6.40
2017-06-21T12:09:18.254Z,5.37
2017-06-21T12:11:45.804Z,5.13
2017-06-21T12:14:13.335Z,4.90
2017-06-21T12:16:41.648Z,4.40
2017-06-21T12:19:09.180Z,4.60
2017-06-21T12:21:37.499Z,4.80
2017-06-21T12:24:05.024Z,5.33
2017-06-21T12:26:32.580Z,4.30
2017-06-21T12:29:00.124Z,5.00
2017-06-21T12:31:27.655Z,5.20
2017-06-21T12:33:55.975Z,5.00
2017-06-21T12:36:23.500Z,5.83
2017-06-21T12:38:51.810Z,5.17
2017-06-21T12:41:19.343Z,5.27
2017-06-21T12:43:46.892Z,5.37
2017-06-21T12:46:14.420Z,4.60
2017-06-21T12:48:42.748Z,6.13
2017-06-21T12:51:10.275Z,5.47
2017-06-21T12:53:37.803Z,5.70
2017-06-21T12:56:05.351Z,5.93
2017-06-21T12:58:32.875Z,5.40
2017-06-21T13:01:01.189Z,4.20
2017-06-21T13:03:28.719Z,5.80
2017-06-21T13:05:56.274Z,6.30
2017-06-21T13:08:23.807Z,6.47
2017-06-21T13:10:51.376Z,5.93
2017-06-21T13:13:18.912Z,6.47
2017-06-21T13:15:46.439Z,6.10
2017-06-21T13:18:13.983Z,6.63
2017-06-21T13:20:41.516Z,7.13
2017-06-21T13:23:09.065Z,6.20
2017-06-21T13:25:36.592Z,7.60
2017-06-21T13:28:04.143Z,5.73
2017-06-21T13:30:31.676Z,6.00
2017-06-21T13:32:59.207Z,7.57
2017-06-21T13:35:26.798Z,6.27
2017-06-21T13:37:54.335Z,6.37
2017-06-21T13:40:21.885Z,6.60
2017-06-21T13:42:49.414Z,7.07
2017-06-21T13:45:16.972Z,7.50
2017-06-21T13:47:44.502Z,7.00
2017-06-21T13:50:12.031Z,7.30
2017-06-21T13:52:39.578Z,5.97
2017-06-21T13:55:07.103Z,6.37
2017-06-21T13:57:34.652Z,6.70
2017-06-21T14:00:02.184Z,7.07
2017-06-21T14:02:30.500Z,5.93
2017-06-21T14:04:58.031Z,5.43
2017-06-21T14:07:25.591Z,6.63
2017-06-21T14:09:53.119Z,5.77
2017-06-21T14:12:20.651Z,6.80
2017-06-21T14:14:48.195Z,6.83
2017-06-21T14:17:15.719Z,6.70
2017-06-21T14:19:43.264Z,5.60
2017-06-21T14:22:10.796Z,5.03
2017-06-21T14:24:38.359Z,5.57
2017-06-21T14:27:05.885Z,6.03
2017-06-21T14:29:33.406Z,4.70
2017-06-21T14:32:01.720Z,5.40
2017-06-21T14:34:29.246Z,5.33
2017-06-21T14:36:56.794Z,5.33
2017-06-21T14:39:24.323Z,5.33
2017-06-21T14:41:51.884Z,4.10
2017-06-21T14:44:19.416Z,5.80
2017-06-21T14:46:46.939Z,4.90
2017-06-21T14:49:14.490Z,4.40
2017-06-21T14:51:42.015Z,4.40
2017-06-21T14:54:09.558Z,4.30
2017-06-21T14:56:37.084Z,4.93
2017-06-21T14:59:04.631Z,4.77
2017-06-21T15:01:32.168Z,4.80
2017-06-21T15:04:00.504Z,5.40
2017-06-21T15:06:28.034Z,6.10
2017-06-21T15:08:55.571Z,5.23
2017-06-21T15:11:23.119Z,4.00
2017-06-21T15:13:50.652Z,3.70
2017-06-21T15:16:18.199Z,4.50
2017-06-21T15:18:45.723Z,3.80
2017-06-21T15:21:13.263Z,4.23
2017-06-21T15:23:40.784Z,3.40
2017-06-21T15:26:08.331Z,4.20
2017-06-21T15:28:36.623Z,4.23
2017-06-21T15:31:04.187Z,4.37
2017-06-21T15:33:31.723Z,4.77
2017-06-21T15:35:59.255Z,4.37
2017-06-21T15:38:26.802Z,4.27
2017-06-21T15:40:54.327Z,4.00
2017-06-21T15:43:21.874Z,4.37
2017-06-21T15:45:49.399Z,4.30
2017-06-21T15:48:16.944Z,4.60
2017-06-21T15:50:44.467Z,4.70
2017-06-21T15:53:12.022Z,5.27
2017-06-21T15:55:40.320Z,4.20
2017-06-21T15:58:07.852Z,4.80
2017-06-21T16:00:35.410Z,4.13
2017-06-21T16:03:02.936Z,4.13
2017-06-21T16:05:30.482Z,5.77
2017-06-21T16:07:58.007Z,5.30
2017-06-21T16:10:25.552Z,5.03
2017-06-21T16:12:53.079Z,5.60
2017-06-21T16:15:20.631Z,4.60
2017-06-21T16:17:48.155Z,4.60
2017-06-21T16:20:15.711Z,4.37
2017-06-21T16:22:43.235Z,6.97
2017-06-21T16:25:10.759Z,5.00
2017-06-21T16:27:38.300Z,4.70
2017-06-21T16:30:05.824Z,4.43
2017-06-21T16:32:33.366Z,5.50
2017-06-21T16:35:00.891Z,4.53
2017-06-21T16:37:28.451Z,5.40
2017-06-21T16:39:55.983Z,5.63
2017-06-21T16:42:23.508Z,5.63
2017-06-21T16:44:51.056Z,5.37
2017-06-21T16:47:18.587Z,5.63
2017-06-21T16:49:46.131Z,4.93
2017-06-21T16:52:13.662Z,5.90
2017-06-21T16:54:41.202Z,5.30
2017-06-21T16:57:08.727Z,4.27
2017-06-21T16:59:36.291Z,5.90
2017-06-21T17:02:03.824Z,4.60
2017-06-21T17:04:31.348Z,4.50
2017-06-21T17:06:59.661Z,5.40
2017-06-21T17:09:27.950Z,5.00
2017-06-21T17:11:55.491Z,5.03
2017-06-21T17:14:23.783Z,4.80
2017-06-21T17:16:52.099Z,5.17
2017-06-21T17:19:19.626Z,4.87
2017-06-21T17:21:47.154Z,4.77
2017-06-21T17:24:14.705Z,4.83
2017-06-21T17:26:42.236Z,5.20
2017-06-21T17:29:09.788Z,5.63
2017-06-21T17:31:37.320Z,4.93
2017-06-21T17:34:04.884Z,5.23
2017-06-21T17:36:32.412Z,5.43
2017-06-21T17:38:59.940Z,4.97
2017-06-21T17:41:28.252Z,4.60
2017-06-21T17:43:55.779Z,5.03
2017-06-21T17:46:24.092Z,5.53
2017-06-21T17:48:51.618Z,5.43
2017-06-21T17:51:19.163Z,5.10
2017-06-21T17:53:46.687Z,5.40
2017-06-21T17:56:14.244Z,6.70
2017-06-21T17:58:41.767Z,5.43
2017-06-21T18:01:10.058Z,5.17
2017-06-21T18:03:37.606Z,4.53
2017-06-21T18:06:05.131Z,5.20
2017-06-21T18:08:32.680Z,5.40
2017-06-21T18:11:00.208Z,4.97
2017-06-21T18:13:27.771Z,5.50
2017-06-21T18:15:55.296Z,5.53
2017-06-21T18:18:22.825Z,6.83
2017-06-21T18:20:50.371Z,6.53
2017-06-21T18:23:18.667Z,5.70
2017-06-21T18:25:46.230Z,5.77
2017-06-21T18:28:13.763Z,6.13
2017-06-21T18:30:41.322Z,5.13
2017-06-21T18:33:08.848Z,6.10
2017-06-21T18:35:36.371Z,5.57
2017-06-21T18:38:03.919Z,6.10
2017-06-21T18:40:31.443Z,5.50
2017-06-21T18:42:59.008Z,4.20
2017-06-21T18:45:26.532Z,5.30
2017-06-21T18:47:54.060Z,6.10
2017-06-21T18:50:21.602Z,6.00
2017-06-21T18:52:49.127Z,6.10
2017-06-21T18:55:16.671Z,5.87
2017-06-21T18:57:44.208Z,6.30
2017-06-21T19:00:12.535Z,6.30
2017-06-21T19:02:40.060Z,5.93
2017-06-21T19:05:07.588Z,6.27
2017-06-21T19:07:35.899Z,6.67
2017-06-21T19:10:03.423Z,6.30
2017-06-21T19:12:30.968Z,5.90
2017-06-21T19:14:58.522Z,5.30
2017-06-21T19:17:26.085Z,6.00
2017-06-21T19:19:53.614Z,6.10
2017-06-21T19:22:21.143Z,6.43
2017-06-21T19:24:48.687Z,5.20
2017-06-21T19:27:16.212Z,5.17
2017-06-21T19:29:44.559Z,5.20
2017-06-21T19:32:12.084Z,5.70
2017-06-21T19:34:39.638Z,5.80
2017-06-21T19:37:07.164Z,5.50
2017-06-21T19:39:34.691Z,5.90
2017-06-21T19:42:02.232Z,5.73
2017-06-21T19:44:30.529Z,5.67
2017-06-21T19:46:58.844Z,5.30
2017-06-21T19:49:27.135Z,5.73
2017-06-21T19:51:54.684Z,5.20
2017-06-21T19:54:22.975Z,5.30
2017-06-21T19:56:50.498Z,5.23
2017-06-21T19:59:18.047Z,4.73
2017-06-21T20:01:46.334Z,5.43
2017-06-21T20:04:14.646Z,5.90
2017-06-21T20:06:42.934Z,5.60
2017-06-21T20:09:11.264Z,6.10
2017-06-21T20:11:38.792Z,5.30
2017-06-21T20:14:06.321Z,5.83
2017-06-21T20:16:33.874Z,5.13
2017-06-21T20:19:01.402Z,5.77
2017-06-21T20:21:28.942Z,5.30
2017-06-21T20:23:56.467Z,5.33
2017-06-21T20:26:24.012Z,5.37
2017-06-21T20:28:51.539Z,5.67
2017-06-21T20:31:19.097Z,6.00
2017-06-21T20:33:46.623Z,6.20
2017-06-21T20:36:14.916Z,5.20
2017-06-21T20:38:42.459Z,5.80
2017-06-21T20:41:09.988Z,5.77
2017-06-21T20:43:37.536Z,5.67
2017-06-21T20:46:05.059Z,5.30
2017-06-21T20:48:32.619Z,6.10
2017-06-21T20:51:00.487Z,5.53
2017-06-21T20:53:28.039Z,5.90
2017-06-21T20:55:55.598Z,5.30
2017-06-21T20:58:23.132Z,5.93
2017-06-21T21:00:50.681Z,6.93
2017-06-21T21:03:18.210Z,7.30
2017-06-21T21:05:45.770Z,7.87
2017-06-21T21:08:13.298Z,7.90
2017-06-21T21:10:41.592Z,7.03
2017-06-21T21:13:09.135Z,6.10
2017-06-21T21:15:37.431Z,5.63
2017-06-21T21:18:04.974Z,5.60
2017-06-21T21:20:32.503Z,5.43
2017-06-21T21:23:00.831Z,5.37
2017-06-21T21:25:28.364Z,5.70
2017-06-21T21:27:55.891Z,6.37
2017-06-21T21:30:23.435Z,6.27
2017-06-21T21:32:50.956Z,5.50
2017-06-21T21:35:18.500Z,5.73
2017-06-21T21:37:46.024Z,7.00
2017-06-21T21:40:14.347Z,7.20
2017-06-21T21:42:41.871Z,6.00
2017-06-21T21:45:09.395Z,7.47
2017-06-21T21:47:36.943Z,6.23
2017-06-21T21:50:04.478Z,7.60
2017-06-21T21:52:32.023Z,6.50
2017-06-21T21:54:59.551Z,6.57
2017-06-21T21:57:27.112Z,6.20
2017-06-21T21:59:55.402Z,5.83
2017-06-21T22:02:22.936Z,6.10
2017-06-21T22:04:50.482Z,5.60
2017-06-21T22:07:18.004Z,5.93
2017-06-21T22:09:45.547Z,6.17
2017-06-21T22:12:13.839Z,5.40
2017-06-21T22:14:41.399Z,5.33
2017-06-21T22:17:08.923Z,5.07
2017-06-21T22:19:36.446Z,6.00
2017-06-21T22:22:03.992Z,5.33
2017-06-21T22:24:31.518Z,6.40
2017-06-21T22:26:59.063Z,5.10
2017-06-21T22:29:26.593Z,5.57
2017-06-21T22:31:54.151Z,5.90
2017-06-21T22:34:21.676Z,5.70
2017-06-21T22:36:49.971Z,5.93
2017-06-21T22:39:17.515Z,6.60
2017-06-21T22:41:45.035Z,6.50
2017-06-21T22:44:13.343Z,7.10
2017-06-21T22:46:40.871Z,7.10
2017-06-21T22:49:08.434Z,6.83
2017-06-21T22:51:35.964Z,6.47
2017-06-21T22:54:03.499Z,5.53
2017-06-21T22:56:31.049Z,7.20
2017-06-21T22:58:58.576Z,6.10
2017-06-21T23:01:26.122Z,5.67
2017-06-21T23:03:53.650Z,6.43
2017-06-21T23:06:21.207Z,6.57
2017-06-21T23:08:48.735Z,6.00
2017-06-21T23:11:16.259Z,5.43
2017-06-21T23:13:43.804Z,6.47
2017-06-21T23:16:11.331Z,6.27
2017-06-21T23:18:38.882Z,6.80
2017-06-21T23:21:06.406Z,5.47
2017-06-21T23:23:34.721Z,6.80
2017-06-21T23:26:03.007Z,5.87
2017-06-21T23:28:30.531Z,5.90
2017-06-21T23:30:58.082Z,5.80
2017-06-21T23:33:25.603Z,6.10
2017-06-21T23:35:53.146Z,6.07
2017-06-21T23:38:21.440Z,6.93
2017-06-21T23:40:49.000Z,7.20
2017-06-21T23:43:16.527Z,7.17
2017-06-21T23:45:44.051Z,7.03
2017-06-21T23:48:12.359Z,7.77
2017-06-21T23:50:39.884Z,7.80
2017-06-21T23:53:07.429Z,7.90
2017-06-21T23:55:34.953Z,8.23
2017-06-21T23:58:02.508Z,7.97
